createdAt,value
2023-01-15T00:01:03.562Z,99693.50
2023-01-15T00:03:30.313Z,99694.69
2023-01-15T00:05:56.619Z,99694.66
2023-01-15T00:08:22.898Z,99696.34
2023-01-15T00:10:49.192Z,99688.38
2023-01-15T00:13:15.646Z,99684.75
2023-01-15T00:15:43.639Z,99683.94
2023-01-15T00:18:10.067Z,99683.09
2023-01-15T00:20:36.416Z,99676.16
2023-01-15T00:23:02.733Z,99678.97
2023-01-15T00:25:29.074Z,99679.47
2023-01-15T00:27:55.395Z,99689.38
2023-01-15T00:30:21.894Z,99682.91
2023-01-15T00:32:49.592Z,99669.91
2023-01-15T00:35:17.506Z,99671.19
2023-01-15T00:37:43.845Z,99680.78
2023-01-15T00:40:10.841Z,99669.91
2023-01-15T00:42:37.144Z,99675.66
2023-01-15T00:45:03.810Z,99670.03
2023-01-15T00:47:30.179Z,99672.84
2023-01-15T00:49:57.872Z,99679.44
2023-01-15T00:52:24.203Z,99677.78
2023-01-15T00:54:50.521Z,99684.72
2023-01-15T00:57:16.863Z,99687.66
2023-01-15T00:59:43.171Z,99704.50
2023-01-15T01:02:09.534Z,99717.84
2023-01-15T01:04:35.883Z,99712.56
2023-01-15T01:07:03.573Z,99713.25
2023-01-15T01:09:30.057Z,99701.03
2023-01-15T01:11:56.389Z,99702.00
2023-01-15T01:14:22.908Z,99693.47
2023-01-15T01:16:49.251Z,99704.66
2023-01-15T01:19:16.535Z,99719.34
2023-01-15T01:21:43.311Z,99706.47
2023-01-15T01:24:11.791Z,99685.19
2023-01-15T01:26:38.169Z,99694.44
2023-01-15T01:29:04.668Z,99707.78
2023-01-15T01:31:31.153Z,99702.53
2023-01-15T01:33:58.453Z,99702.53
2023-01-15T01:36:27.624Z,99697.56
2023-01-15T01:38:53.957Z,99700.69
2023-01-15T01:41:21.614Z,99707.78
2023-01-15T01:43:55.865Z,99706.97
2023-01-15T01:46:22.231Z,99699.88
2023-01-15T01:48:49.577Z,99700.69
2023-01-15T01:51:16.535Z,99690.13
2023-01-15T01:53:43.296Z,99694.09
2023-01-15T01:56:10.394Z,99702.53
2023-01-15T01:58:38.928Z,99693.78
2023-01-15T02:01:05.698Z,99685.69
2023-01-15T02:03:35.353Z,99689.97
2023-01-15T02:06:03.493Z,99710.94
2023-01-15T02:08:29.797Z,99702.38
2023-01-15T02:10:56.483Z,99693.47
2023-01-15T02:13:26.702Z,99700.53
2023-01-15T02:15:57.310Z,99697.91
2023-01-15T02:18:26.816Z,99707.66
2023-01-15T02:20:55.712Z,99705.31
2023-01-15T02:23:33.689Z,99705.81
2023-01-15T02:26:12.225Z,99709.78
2023-01-15T02:28:41.542Z,99695.22
2023-01-15T02:31:10.601Z,99695.22
2023-01-15T02:33:38.475Z,99703.97
2023-01-15T02:36:07.698Z,99700.50
2023-01-15T02:38:36.799Z,99702.16
2023-01-15T02:41:05.430Z,99707.09
2023-01-15T02:43:33.784Z,99698.38
2023-01-15T02:46:03.538Z,99691.28
2023-01-15T02:48:32.371Z,99676.09
2023-01-15T02:51:00.857Z,99667.34
2023-01-15T02:53:29.206Z,99652.97
2023-01-15T02:55:58.026Z,99660.88
2023-01-15T02:58:28.487Z,99659.38
2023-01-15T03:00:56.530Z,99671.75
2023-01-15T03:03:30.950Z,99666.16
2023-01-15T03:05:59.532Z,99662.38
2023-01-15T03:08:26.165Z,99663.38
2023-01-15T03:10:58.344Z,99669.78
2023-01-15T03:13:29.384Z,99664.50
2023-01-15T03:15:58.383Z,99679.38
2023-01-15T03:18:28.303Z,99678.03
2023-01-15T03:20:58.785Z,99679.38
2023-01-15T03:23:26.243Z,99677.09
2023-01-15T03:25:52.941Z,99681.19
2023-01-15T03:28:21.652Z,99672.78
2023-01-15T03:30:48.102Z,99666.84
2023-01-15T03:33:14.570Z,99660.56
2023-01-15T03:35:45.707Z,99667.66
2023-01-15T03:38:12.171Z,99663.84
2023-01-15T03:40:40.697Z,99656.91
2023-01-15T03:43:09.680Z,99652.97
2023-01-15T03:45:37.504Z,99661.72
2023-01-15T03:48:10.920Z,99661.03
2023-01-15T03:50:39.913Z,99666.38
2023-01-15T03:53:11.248Z,99676.28
2023-01-15T03:55:41.342Z,99674.09
2023-01-15T03:58:10.875Z,99675.75
2023-01-15T04:00:38.861Z,99665.53
2023-01-15T04:03:07.175Z,99659.59
2023-01-15T04:05:34.605Z,99666.00
2023-01-15T04:08:01.303Z,99664.19
2023-01-15T04:10:29.016Z,99670.16
2023-01-15T04:12:55.313Z,99666.53
2023-01-15T04:15:21.612Z,99673.13
2023-01-15T04:17:47.920Z,99671.00
2023-01-15T04:20:14.314Z,99674.09
2023-01-15T04:22:40.651Z,99664.53
2023-01-15T04:25:07.615Z,99667.16
2023-01-15T04:27:35.315Z,99663.22
2023-01-15T04:30:01.783Z,99655.13
2023-01-15T04:32:28.144Z,99657.63
2023-01-15T04:34:54.587Z,99659.44
2023-01-15T04:37:20.907Z,99663.22
2023-01-15T04:39:47.218Z,99663.06
2023-01-15T04:42:14.132Z,99665.19
2023-01-15T04:44:41.795Z,99669.19
2023-01-15T04:47:08.142Z,99681.91
2023-01-15T04:49:34.647Z,99690.66
2023-01-15T04:52:00.978Z,99683.22
2023-01-15T04:54:27.353Z,99688.84
2023-01-15T04:56:54.526Z,99699.28
2023-01-15T04:59:21.753Z,99689.53
2023-01-15T05:02:02.462Z,99684.09
2023-01-15T05:04:30.578Z,99686.88
2023-01-15T05:06:56.976Z,99675.66
2023-01-15T05:09:23.281Z,99681.75
2023-01-15T05:11:49.589Z,99678.78
2023-01-15T05:14:15.968Z,99689.19
2023-01-15T05:16:42.238Z,99686.69
2023-01-15T05:19:10.666Z,99694.28
2023-01-15T05:21:39.598Z,99703.88
2023-01-15T05:24:06.855Z,99688.84
2023-01-15T05:26:33.608Z,99686.38
2023-01-15T05:29:00.538Z,99680.78
2023-01-15T05:31:27.336Z,99673.00
2023-01-15T05:33:54.368Z,99665.25
2023-01-15T05:36:22.684Z,99675.81
2023-01-15T05:38:49.148Z,99679.44
2023-01-15T05:41:16.554Z,99675.50
2023-01-15T05:43:42.851Z,99678.28
2023-01-15T05:46:09.179Z,99670.38
2023-01-15T05:48:35.534Z,99670.53
2023-01-15T05:51:01.960Z,99672.19
2023-01-15T05:53:29.591Z,99675.81
2023-01-15T05:55:55.896Z,99674.00
2023-01-15T05:58:22.192Z,99679.94
2023-01-15T06:00:48.494Z,99676.47
2023-01-15T06:03:14.823Z,99674.81
2023-01-15T06:05:41.134Z,99677.78
2023-01-15T06:08:07.433Z,99670.03
2023-01-15T06:10:35.085Z,99682.06
2023-01-15T06:13:01.394Z,99676.47
2023-01-15T06:15:27.713Z,99691.66
2023-01-15T06:17:54.025Z,99688.34
2023-01-15T06:20:20.346Z,99705.22
2023-01-15T06:22:48.836Z,99699.22
2023-01-15T06:25:15.223Z,99702.69
2023-01-15T06:27:42.835Z,99699.22
2023-01-15T06:30:09.845Z,99709.09
2023-01-15T06:32:36.142Z,99700.56
2023-01-15T06:35:02.483Z,99707.66
2023-01-15T06:37:28.792Z,99696.94
2023-01-15T06:39:55.107Z,99705.00
2023-01-15T06:42:21.377Z,99703.34
2023-01-15T06:44:49.062Z,99713.38
2023-01-15T06:47:16.502Z,99708.09
2023-01-15T06:49:42.829Z,99708.25
2023-01-15T06:52:09.142Z,99715.66
2023-01-15T06:54:35.416Z,99715.66
2023-01-15T06:57:01.739Z,99718.13
2023-01-15T06:59:28.135Z,99720.75
2023-01-15T07:01:55.804Z,99726.88
2023-01-15T07:04:22.274Z,99716.47
2023-01-15T07:06:48.579Z,99731.03
2023-01-15T07:09:14.916Z,99742.72
2023-01-15T07:11:41.239Z,99730.50
2023-01-15T07:14:07.560Z,99730.66
2023-01-15T07:16:33.958Z,99726.66
2023-01-15T07:19:01.919Z,99721.28
2023-01-15T07:21:28.770Z,99734.66
2023-01-15T07:23:58.214Z,99731.06
2023-01-15T07:26:24.560Z,99734.19
2023-01-15T07:28:50.850Z,99754.28
2023-01-15T07:31:17.235Z,99746.06
2023-01-15T07:33:43.592Z,99745.22
2023-01-15T07:36:11.311Z,99732.53
2023-01-15T07:38:37.624Z,99741.56
2023-01-15T07:41:03.991Z,99755.75
2023-01-15T07:43:30.311Z,99757.53
2023-01-15T07:45:57.009Z,99764.78
2023-01-15T07:48:23.316Z,99782.25
2023-01-15T07:50:49.592Z,99768.72
2023-01-15T07:53:17.263Z,99772.63
2023-01-15T07:55:43.613Z,99779.94
2023-01-15T07:58:09.900Z,99775.19
2023-01-15T08:00:36.195Z,99784.06
2023-01-15T08:03:02.516Z,99787.69
2023-01-15T08:05:28.868Z,99787.72
2023-01-15T08:07:55.234Z,99801.50
2023-01-15T08:10:22.966Z,99795.25
2023-01-15T08:12:49.952Z,99808.75
2023-01-15T08:15:16.302Z,99803.47
2023-01-15T08:17:43.723Z,99796.63
2023-01-15T08:20:11.751Z,99812.63
2023-01-15T08:22:38.078Z,99812.16
2023-01-15T08:25:04.832Z,99811.03
2023-01-15T08:27:33.532Z,99800.22
2023-01-15T08:30:00.016Z,99802.25
2023-01-15T08:32:26.334Z,99803.91
2023-01-15T08:34:52.640Z,99800.16
2023-01-15T08:37:18.945Z,99795.63
2023-01-15T08:39:45.254Z,99807.06
2023-01-15T08:42:11.598Z,99792.59
2023-01-15T08:44:39.315Z,99787.25
2023-01-15T08:47:05.645Z,99800.34
2023-01-15T08:49:31.932Z,99789.81
2023-01-15T08:51:58.241Z,99790.97
2023-01-15T08:54:24.628Z,99792.97
2023-01-15T08:56:51.035Z,99784.09
2023-01-15T08:59:17.379Z,99786.59
2023-01-15T09:01:45.121Z,99782.00
2023-01-15T09:04:13.491Z,99777.22
2023-01-15T09:06:39.772Z,99786.19
2023-01-15T09:09:06.077Z,99774.28
2023-01-15T09:11:32.401Z,99776.63
2023-01-15T09:13:58.743Z,99775.66
2023-01-15T09:16:25.064Z,99792.28
2023-01-15T09:18:52.754Z,99766.28
2023-01-15T09:21:19.079Z,99764.50
2023-01-15T09:23:45.429Z,99762.56
2023-01-15T09:26:24.823Z,99776.00
2023-01-15T09:28:51.137Z,99778.06
2023-01-15T09:31:17.535Z,99766.88
2023-01-15T09:33:43.894Z,99776.31
2023-01-15T09:36:15.709Z,99776.84
2023-01-15T09:38:42.029Z,99786.03
2023-01-15T09:41:10.065Z,99779.00
2023-01-15T09:43:50.207Z,99772.44
2023-01-15T09:46:19.536Z,99776.31
2023-01-15T09:48:52.549Z,99779.28
2023-01-15T09:51:27.253Z,99781.47
2023-01-15T09:54:00.544Z,99775.06
2023-01-15T09:56:28.178Z,99775.41
2023-01-15T09:58:56.021Z,99787.31
2023-01-15T10:01:25.678Z,99789.00
2023-01-15T10:03:57.143Z,99801.03
2023-01-15T10:06:26.190Z,99805.53
2023-01-15T10:08:59.428Z,99803.38
2023-01-15T10:11:29.181Z,99826.13
2023-01-15T10:13:59.628Z,99812.59
2023-01-15T10:16:27.465Z,99811.75
2023-01-15T10:18:54.721Z,99819.56
2023-01-15T10:21:28.270Z,99838.94
2023-01-15T10:23:58.404Z,99833.16
2023-01-15T10:26:31.315Z,99829.69
2023-01-15T10:28:59.079Z,99817.63
2023-01-15T10:31:31.556Z,99820.16
2023-01-15T10:34:03.483Z,99836.72
2023-01-15T10:36:35.753Z,99826.78
2023-01-15T10:39:05.213Z,99819.66
2023-01-15T10:41:37.499Z,99828.09
2023-01-15T10:44:08.998Z,99828.72
2023-01-15T10:46:37.138Z,99836.34
2023-01-15T10:49:05.184Z,99838.22
2023-01-15T10:51:37.338Z,99827.97
2023-01-15T10:54:05.859Z,99830.31
2023-01-15T10:56:33.925Z,99836.41
2023-01-15T10:59:04.124Z,99823.53
2023-01-15T11:01:31.016Z,99826.16
2023-01-15T11:03:57.441Z,99821.84
2023-01-15T11:06:23.960Z,99827.81
2023-01-15T11:09:10.431Z,99821.47
2023-01-15T11:11:40.057Z,99827.81
2023-01-15T11:14:06.365Z,99832.59
2023-01-15T11:16:32.760Z,99826.16
2023-01-15T11:19:01.559Z,99828.78
2023-01-15T11:21:28.572Z,99823.50
2023-01-15T11:23:57.526Z,99825.16
2023-01-15T11:26:25.400Z,99808.16
2023-01-15T11:28:52.586Z,99827.13
2023-01-15T11:31:19.286Z,99815.56
2023-01-15T11:33:55.622Z,99822.22
2023-01-15T11:36:23.032Z,99828.66
2023-01-15T11:38:50.454Z,99831.13
2023-01-15T11:41:19.844Z,99822.84
2023-01-15T11:43:53.348Z,99824.66
2023-01-15T11:46:23.715Z,99823.03
2023-01-15T11:48:50.079Z,99802.84
2023-01-15T11:51:17.400Z,99820.38
2023-01-15T11:53:45.239Z,99814.91
2023-01-15T11:56:13.422Z,99821.19
2023-01-15T11:58:44.757Z,99823.53
2023-01-15T12:01:12.479Z,99818.25
2023-01-15T12:03:40.523Z,99812.63
2023-01-15T12:06:09.357Z,99830.31
2023-01-15T12:08:43.515Z,99820.88
2023-01-15T12:11:26.323Z,99826.16
2023-01-15T12:14:00.987Z,99823.53
2023-01-15T12:16:30.404Z,99825.47
2023-01-15T12:18:58.647Z,99834.75
2023-01-15T12:21:33.645Z,99834.59
2023-01-15T12:24:08.696Z,99826.66
2023-01-15T12:26:37.068Z,99833.94
2023-01-15T12:29:11.565Z,99821.03
2023-01-15T12:31:39.911Z,99801.38
2023-01-15T12:34:12.523Z,99798.06
2023-01-15T12:36:40.073Z,99806.16
2023-01-15T12:39:12.250Z,99797.06
2023-01-15T12:41:41.085Z,99810.09
2023-01-15T12:44:09.862Z,99810.44
2023-01-15T12:46:39.119Z,99816.22
2023-01-15T12:49:09.979Z,99783.56
2023-01-15T12:51:40.808Z,99799.22
2023-01-15T12:54:11.097Z,99810.91
2023-01-15T12:56:43.466Z,99806.81
2023-01-15T12:59:16.721Z,99809.09
2023-01-15T13:01:48.962Z,99798.06
2023-01-15T13:04:18.253Z,99806.00
2023-01-15T13:06:46.840Z,99807.66
2023-01-15T13:09:19.428Z,99806.69
2023-01-15T13:11:45.735Z,99790.16
2023-01-15T13:14:15.315Z,99808.47
2023-01-15T13:16:45.498Z,99791.16
2023-01-15T13:19:21.834Z,99786.66
2023-01-15T13:21:49.776Z,99807.97
2023-01-15T13:24:34.077Z,99804.69
2023-01-15T13:27:07.925Z,99795.78
2023-01-15T13:29:40.674Z,99796.56
2023-01-15T13:32:12.163Z,99780.25
2023-01-15T13:34:42.011Z,99801.56
2023-01-15T13:37:13.834Z,99819.88
2023-01-15T13:39:41.989Z,99811.94
2023-01-15T13:42:15.849Z,99810.97
2023-01-15T13:44:47.349Z,99820.50
2023-01-15T13:47:17.638Z,99814.09
2023-01-15T13:49:48.108Z,99822.84
2023-01-15T13:52:20.484Z,99804.84
2023-01-15T13:54:46.862Z,99821.84
2023-01-15T13:57:23.025Z,99830.25
2023-01-15T13:59:50.717Z,99821.03
2023-01-15T14:02:27.853Z,99816.56
2023-01-15T14:04:54.427Z,99825.19
2023-01-15T14:07:21.746Z,99826.00
2023-01-15T14:09:48.040Z,99826.31
2023-01-15T14:12:20.183Z,99832.09
2023-01-15T14:14:54.901Z,99831.44
2023-01-15T14:17:42.958Z,99826.97
2023-01-15T14:20:23.433Z,99834.41
2023-01-15T14:22:56.680Z,99826.28
2023-01-15T14:25:50.034Z,99831.91
2023-01-15T14:28:25.041Z,99825.94
2023-01-15T14:31:24.483Z,99836.72
2023-01-15T14:33:58.412Z,99837.56
2023-01-15T14:36:26.794Z,99831.59
2023-01-15T14:38:55.609Z,99829.47
2023-01-15T14:41:26.104Z,99839.06
2023-01-15T14:43:52.935Z,99837.53
2023-01-15T14:46:24.689Z,99823.97
2023-01-15T14:48:51.008Z,99830.38
2023-01-15T14:51:21.888Z,99836.34
2023-01-15T14:53:50.081Z,99840.66
2023-01-15T14:56:19.443Z,99846.63
2023-01-15T14:58:49.032Z,99846.47
2023-01-15T15:01:30.599Z,99842.31
2023-01-15T15:03:58.684Z,99825.16
2023-01-15T15:06:27.846Z,99852.25
2023-01-15T15:08:56.857Z,99848.09
2023-01-15T15:11:25.182Z,99862.44
2023-01-15T15:13:52.251Z,99857.78
2023-01-15T15:16:19.896Z,99876.25
2023-01-15T15:18:52.289Z,99871.63
2023-01-15T15:21:20.773Z,99873.28
2023-01-15T15:23:53.252Z,99877.19
2023-01-15T15:26:21.809Z,99862.78
2023-01-15T15:29:05.905Z,99869.59
2023-01-15T15:31:34.034Z,99874.88
2023-01-15T15:34:03.118Z,99868.28
2023-01-15T15:36:31.221Z,99877.81
2023-01-15T15:39:00.032Z,99869.88
2023-01-15T15:41:27.586Z,99861.63
2023-01-15T15:43:56.744Z,99860.81
2023-01-15T15:46:27.575Z,99865.69
2023-01-15T15:48:57.292Z,99860.50
2023-01-15T15:51:27.439Z,99854.88
2023-01-15T15:54:03.771Z,99864.44
2023-01-15T15:56:31.028Z,99864.25
2023-01-15T15:58:57.373Z,99869.84
2023-01-15T16:01:23.901Z,99866.91
2023-01-15T16:03:50.269Z,99856.97
2023-01-15T16:06:19.427Z,99861.25
2023-01-15T16:08:52.229Z,99849.25
2023-01-15T16:11:21.076Z,99862.59
2023-01-15T16:13:49.223Z,99865.84
2023-01-15T16:16:15.898Z,99867.34
2023-01-15T16:18:42.975Z,99861.75
2023-01-15T16:21:10.147Z,99858.75
2023-01-15T16:23:36.557Z,99871.25
2023-01-15T16:26:05.109Z,99867.47
2023-01-15T16:28:37.368Z,99863.53
2023-01-15T16:31:03.929Z,99871.13
2023-01-15T16:33:30.702Z,99874.19
2023-01-15T16:35:57.383Z,99861.38
2023-01-15T16:38:24.116Z,99863.19
2023-01-15T16:40:50.564Z,99873.06
2023-01-15T16:43:18.736Z,99875.69
2023-01-15T16:45:56.975Z,99871.81
2023-01-15T16:48:27.063Z,99863.28
2023-01-15T16:50:53.368Z,99869.28
2023-01-15T16:53:37.679Z,99868.06
2023-01-15T16:56:04.565Z,99864.84
2023-01-15T16:58:35.763Z,99876.34
2023-01-15T17:01:23.135Z,99859.81
2023-01-15T17:03:52.077Z,99870.22
2023-01-15T17:06:20.826Z,99874.00
2023-01-15T17:08:48.517Z,99869.13
2023-01-15T17:11:18.577Z,99871.41
2023-01-15T17:13:44.899Z,99877.91
2023-01-15T17:16:17.876Z,99865.72
2023-01-15T17:18:44.310Z,99871.00
2023-01-15T17:21:13.999Z,99877.34
2023-01-15T17:23:40.555Z,99869.66
2023-01-15T17:26:07.283Z,99873.81
2023-01-15T17:28:33.619Z,99869.06
2023-01-15T17:31:01.533Z,99867.56
2023-01-15T17:33:29.329Z,99883.53
2023-01-15T17:35:58.345Z,99879.69
2023-01-15T17:38:24.644Z,99883.94
2023-01-15T17:40:50.938Z,99886.75
2023-01-15T17:43:17.260Z,99881.03
2023-01-15T17:45:43.599Z,99887.91
2023-01-15T17:48:09.949Z,99873.91
2023-01-15T17:50:37.898Z,99868.44
2023-01-15T17:53:05.242Z,99869.06
2023-01-15T17:55:31.651Z,99861.84
2023-01-15T17:57:58.077Z,99863.53
2023-01-15T18:00:24.515Z,99863.69
2023-01-15T18:02:50.967Z,99864.47
2023-01-15T18:05:17.435Z,99865.56
2023-01-15T18:07:45.312Z,99865.78
2023-01-15T18:10:13.375Z,99870.41
2023-01-15T18:12:42.311Z,99861.94
2023-01-15T18:15:09.041Z,99861.22
2023-01-15T18:17:35.377Z,99860.66
2023-01-15T18:20:01.733Z,99868.38
2023-01-15T18:22:28.088Z,99864.22
2023-01-15T18:24:55.782Z,99863.88
2023-01-15T18:27:22.291Z,99859.09
2023-01-15T18:29:48.608Z,99856.16
2023-01-15T18:32:14.926Z,99860.25
2023-01-15T18:34:41.246Z,99853.47
2023-01-15T18:37:07.549Z,99853.75
2023-01-15T18:39:33.879Z,99852.25
2023-01-15T18:42:01.525Z,99854.88
2023-01-15T18:44:29.391Z,99844.03
2023-01-15T18:46:56.549Z,99842.38
2023-01-15T18:49:22.907Z,99839.44
2023-01-15T18:51:49.208Z,99834.25
2023-01-15T18:54:15.534Z,99834.25
2023-01-15T18:56:41.877Z,99829.53
2023-01-15T18:59:10.288Z,99829.97
2023-01-15T19:01:37.240Z,99823.44
2023-01-15T19:04:04.097Z,99826.06
2023-01-15T19:06:30.422Z,99826.56
2023-01-15T19:08:57.963Z,99818.25
2023-01-15T19:11:24.345Z,99820.38
2023-01-15T19:13:50.679Z,99815.25
2023-01-15T19:16:18.376Z,99820.66
2023-01-15T19:18:45.864Z,99817.97
2023-01-15T19:21:12.190Z,99824.06
2023-01-15T19:23:38.528Z,99817.00
2023-01-15T19:26:04.941Z,99802.97
2023-01-15T19:28:31.247Z,99799.53
2023-01-15T19:30:57.573Z,99793.56
2023-01-15T19:33:25.330Z,99787.31
2023-01-15T19:35:52.611Z,99783.38
2023-01-15T19:38:19.980Z,99776.09
2023-01-15T19:40:49.010Z,99776.69
2023-01-15T19:43:15.310Z,99785.88
2023-01-15T19:45:44.041Z,99780.69
2023-01-15T19:48:11.995Z,99769.25
2023-01-15T19:50:40.736Z,99764.88
2023-01-15T19:53:07.366Z,99762.69
2023-01-15T19:55:34.778Z,99754.41
2023-01-15T19:58:03.989Z,99756.66
2023-01-15T20:00:31.009Z,99743.78
2023-01-15T20:02:57.636Z,99740.78
2023-01-15T20:05:24.357Z,99744.00
2023-01-15T20:07:52.001Z,99745.28
2023-01-15T20:10:19.433Z,99743.06
2023-01-15T20:12:45.741Z,99734.81
2023-01-15T20:15:13.211Z,99731.50
2023-01-15T20:17:39.555Z,99730.66
2023-01-15T20:20:06.459Z,99730.59
2023-01-15T20:22:32.762Z,99720.91
2023-01-15T20:25:02.345Z,99719.88
2023-01-15T20:27:30.165Z,99720.63
2023-01-15T20:29:58.039Z,99709.03
2023-01-15T20:32:24.373Z,99705.91
2023-01-15T20:34:50.691Z,99711.44
2023-01-15T20:37:17.023Z,99703.31
2023-01-15T20:39:46.018Z,99700.38
2023-01-15T20:42:13.637Z,99693.53
2023-01-15T20:44:39.948Z,99690.59
2023-01-15T20:47:06.268Z,99689.47
2023-01-15T20:49:32.633Z,99690.34
2023-01-15T20:51:59.000Z,99681.38
2023-01-15T20:54:25.580Z,99673.97
2023-01-15T20:56:52.072Z,99680.91
2023-01-15T20:59:19.691Z,99674.66
2023-01-15T21:01:46.161Z,99671.97
2023-01-15T21:04:12.599Z,99668.41
2023-01-15T21:06:38.989Z,99664.25
2023-01-15T21:09:05.282Z,99649.28
2023-01-15T21:11:31.632Z,99646.97
2023-01-15T21:13:57.978Z,99644.97
2023-01-15T21:16:25.656Z,99640.53
2023-01-15T21:18:52.015Z,99630.00
2023-01-15T21:21:19.424Z,99629.16
2023-01-15T21:23:45.874Z,99623.41
2023-01-15T21:26:12.751Z,99612.72
2023-01-15T21:28:39.044Z,99615.19
2023-01-15T21:31:06.326Z,99606.47
2023-01-15T21:33:34.025Z,99609.63
2023-01-15T21:36:04.726Z,99595.78
2023-01-15T21:38:31.254Z,99601.19
2023-01-15T21:40:57.582Z,99587.19
2023-01-15T21:43:23.927Z,99595.88
2023-01-15T21:45:50.253Z,99580.22
2023-01-15T21:48:16.652Z,99576.25
2023-01-15T21:50:44.337Z,99575.25
2023-01-15T21:53:10.679Z,99576.25
2023-01-15T21:55:36.976Z,99573.47
2023-01-15T21:58:03.279Z,99568.03
2023-01-15T22:00:29.603Z,99567.88
2023-01-15T22:02:55.993Z,99563.63
2023-01-15T22:05:22.493Z,99559.84
2023-01-15T22:07:50.196Z,99561.81
2023-01-15T22:10:16.565Z,99565.28
2023-01-15T22:12:42.930Z,99559.41
2023-01-15T22:15:09.762Z,99549.69
2023-01-15T22:17:36.082Z,99550.06
2023-01-15T22:20:02.435Z,99541.03
2023-01-15T22:22:28.717Z,99530.44
2023-01-15T22:24:56.414Z,99522.19
2023-01-15T22:27:22.738Z,99522.13
2023-01-15T22:29:49.042Z,99512.34
2023-01-15T22:32:15.603Z,99510.66
2023-01-15T22:34:42.199Z,99509.81
2023-01-15T22:37:09.297Z,99505.47
2023-01-15T22:39:35.647Z,99498.19
2023-01-15T22:42:03.455Z,99496.16
2023-01-15T22:44:29.857Z,99497.44
2023-01-15T22:46:56.210Z,99486.94
2023-01-15T22:49:22.968Z,99484.88
2023-01-15T22:51:49.567Z,99490.56
2023-01-15T22:54:16.610Z,99496.66
2023-01-15T22:56:43.975Z,99487.78
2023-01-15T22:59:11.990Z,99488.69
2023-01-15T23:01:39.166Z,99474.84
2023-01-15T23:04:07.983Z,99475.66
2023-01-15T23:06:34.259Z,99466.63
2023-01-15T23:09:01.337Z,99468.78
2023-01-15T23:11:28.248Z,99484.22
2023-01-15T23:13:54.549Z,99463.16
2023-01-15T23:16:22.570Z,99474.81
2023-01-15T23:18:49.260Z,99476.22
2023-01-15T23:21:16.683Z,99469.47
2023-01-15T23:23:42.994Z,99457.91
2023-01-15T23:26:10.795Z,99455.44
2023-01-15T23:28:37.102Z,99459.41
2023-01-15T23:31:03.541Z,99451.50
2023-01-15T23:33:31.263Z,99456.09
2023-01-15T23:35:57.645Z,99453.94
2023-01-15T23:38:23.953Z,99454.09
2023-01-15T23:40:50.300Z,99445.69
2023-01-15T23:43:16.899Z,99440.97
2023-01-15T23:45:43.217Z,99434.06
2023-01-15T23:48:10.212Z,99419.75
2023-01-15T23:50:37.875Z,99422.81
2023-01-15T23:53:04.186Z,99415.38
2023-01-15T23:55:30.483Z,99408.84
2023-01-15T23:57:57.077Z,99412.06
